首页
METAR-TAF:

METAR-TAF

机场 :

塞格德, 匈牙利

纬度: 46-15N, 经度: 020-06E, 海拔: 82米

当前天气观测

该预报发布于55分钟前的14:45 UTC
风速7节,风向北转东北
温度 27°C
湿度 62%
气压 1016 hPa
能见度10公里或以上
散云层高于3600英尺

METAR: LHUD 171445Z 02007KT 9999 SCT036 27/19 Q1016

时间: 17:40 (15:40 UTC)


TAF: 丢失

超过4000个机场的气象观测和天气预报(METAR&TAF报告)。

可查询的气象台以黄色和红色小点在地图上表示。

将鼠标移到小点上方,可查看气象台名称。

然后点击查看天气观测和预报。

如需切换地图:点击带黑十字的绿色按钮放大地图;点击带横线的绿色按钮缩小地图;或者点击绿色箭头查看邻近地区的地图。


METAR-TAF: